sensor_id;sensor_type;location;lat;lon;timestamp;P1;durP1;ratioP1;P2;durP2;ratioP2
21645;SDS011;10984;45.712;4.800;2023-02-26T00:01:19;4.20;;;1.23;;
21645;SDS011;10984;45.712;4.800;2023-02-26T00:04:03;6.00;;;1.50;;
21645;SDS011;10984;45.712;4.800;2023-02-26T00:06:31;3.08;;;1.20;;
21645;SDS011;10984;45.712;4.800;2023-02-26T00:08:58;3.08;;;1.40;;
21645;SDS011;10984;45.712;4.800;2023-02-26T00:11:23;4.95;;;1.67;;
21645;SDS011;10984;45.712;4.800;2023-02-26T00:13:49;2.63;;;1.13;;
21645;SDS011;10984;45.712;4.800;2023-02-26T00:19:03;6.72;;;1.40;;
21645;SDS011;10984;45.712;4.800;2023-02-26T00:21:30;6.63;;;2.40;;
21645;SDS011;10984;45.712;4.800;2023-02-26T00:23:57;5.30;;;1.40;;
21645;SDS011;10984;45.712;4.800;2023-02-26T00:26:24;3.65;;;1.40;;
21645;SDS011;10984;45.712;4.800;2023-02-26T00:28:51;2.78;;;1.27;;
21645;SDS011;10984;45.712;4.800;2023-02-26T00:31:17;6.82;;;1.95;;
21645;SDS011;10984;45.712;4.800;2023-02-26T00:33:45;4.95;;;1.55;;
21645;SDS011;10984;45.712;4.800;2023-02-26T00:39:21;5.38;;;1.33;;
21645;SDS011;10984;45.712;4.800;2023-02-26T00:42:10;3.97;;;1.88;;
21645;SDS011;10984;45.712;4.800;2023-02-26T00:44:36;3.60;;;1.52;;
21645;SDS011;10984;45.712;4.800;2023-02-26T00:55:34;5.45;;;1.70;;
21645;SDS011;10984;45.712;4.800;2023-02-26T00:58:00;4.30;;;1.80;;
21645;SDS011;10984;45.712;4.800;2023-02-26T01:00:26;8.73;;;2.58;;
21645;SDS011;10984;45.712;4.800;2023-02-26T01:02:51;4.95;;;1.55;;
21645;SDS011;10984;45.712;4.800;2023-02-26T01:05:17;4.85;;;1.88;;
21645;SDS011;10984;45.712;4.800;2023-02-26T01:10:28;4.93;;;1.70;;
21645;SDS011;10984;45.712;4.800;2023-02-26T01:12:54;8.00;;;2.08;;
21645;SDS011;10984;45.712;4.800;2023-02-26T01:15:21;4.18;;;2.10;;
21645;SDS011;10984;45.712;4.800;2023-02-26T01:17:50;3.28;;;1.33;;
21645;SDS011;10984;45.712;4.800;2023-02-26T01:23:25;7.50;;;1.60;;
21645;SDS011;10984;45.712;4.800;2023-02-26T01:28:56;3.75;;;1.35;;
21645;SDS011;10984;45.712;4.800;2023-02-26T01:43:24;4.45;;;1.67;;
21645;SDS011;10984;45.712;4.800;2023-02-26T01:49:15;4.50;;;1.90;;
21645;SDS011;10984;45.712;4.800;2023-02-26T01:57:14;5.10;;;1.38;;
21645;SDS011;10984;45.712;4.800;2023-02-26T01:59:43;4.88;;;1.42;;
21645;SDS011;10984;45.712;4.800;2023-02-26T02:02:12;8.73;;;2.47;;
21645;SDS011;10984;45.712;4.800;2023-02-26T02:04:42;5.72;;;1.95;;
21645;SDS011;10984;45.712;4.800;2023-02-26T02:07:08;5.40;;;2.78;;
21645;SDS011;10984;45.712;4.800;2023-02-26T02:09:34;7.35;;;2.30;;
21645;SDS011;10984;45.712;4.800;2023-02-26T02:40:43;11.57;;;2.15;;
21645;SDS011;10984;45.712;4.800;2023-02-26T02:46:00;5.47;;;2.28;;
21645;SDS011;10984;45.712;4.800;2023-02-26T02:51:34;3.90;;;1.88;;
21645;SDS011;10984;45.712;4.800;2023-02-26T02:56:54;4.50;;;2.08;;
21645;SDS011;10984;45.712;4.800;2023-02-26T03:05:15;5.68;;;2.67;;
21645;SDS011;10984;45.712;4.800;2023-02-26T03:07:44;4.15;;;1.80;;
21645;SDS011;10984;45.712;4.800;2023-02-26T03:10:31;4.68;;;2.50;;
21645;SDS011;10984;45.712;4.800;2023-02-26T03:12:58;6.13;;;1.90;;
21645;SDS011;10984;45.712;4.800;2023-02-26T03:36:05;5.32;;;2.60;;
21645;SDS011;10984;45.712;4.800;2023-02-26T03:44:11;10.35;;;2.42;;
21645;SDS011;10984;45.712;4.800;2023-02-26T03:46:44;7.03;;;2.42;;
21645;SDS011;10984;45.712;4.800;2023-02-26T03:49:16;4.97;;;2.10;;
21645;SDS011;10984;45.712;4.800;2023-02-26T03:51:45;6.80;;;2.42;;
21645;SDS011;10984;45.712;4.800;2023-02-26T03:54:17;5.70;;;1.98;;
21645;SDS011;10984;45.712;4.800;2023-02-26T03:57:02;6.00;;;2.45;;
21645;SDS011;10984;45.712;4.800;2023-02-26T03:59:28;4.22;;;2.13;;
21645;SDS011;10984;45.712;4.800;2023-02-26T04:04:44;4.68;;;2.38;;
21645;SDS011;10984;45.712;4.800;2023-02-26T04:07:30;5.88;;;2.25;;
21645;SDS011;10984;45.712;4.800;2023-02-26T04:09:56;4.70;;;2.47;;
21645;SDS011;10984;45.712;4.800;2023-02-26T04:12:22;7.43;;;2.80;;
21645;SDS011;10984;45.712;4.800;2023-02-26T04:14:49;7.85;;;2.60;;
21645;SDS011;10984;45.712;4.800;2023-02-26T04:17:15;3.97;;;2.33;;
21645;SDS011;10984;45.712;4.800;2023-02-26T04:19:41;8.85;;;2.28;;
21645;SDS011;10984;45.712;4.800;2023-02-26T04:22:06;10.38;;;2.60;;
21645;SDS011;10984;45.712;4.800;2023-02-26T04:24:32;4.00;;;2.10;;
21645;SDS011;10984;45.712;4.800;2023-02-26T04:26:58;5.80;;;2.10;;
21645;SDS011;10984;45.712;4.800;2023-02-26T04:29:24;4.75;;;2.25;;
21645;SDS011;10984;45.712;4.800;2023-02-26T04:31:49;4.82;;;2.80;;
21645;SDS011;10984;45.712;4.800;2023-02-26T04:34:15;3.80;;;1.90;;
21645;SDS011;10984;45.712;4.800;2023-02-26T04:36:40;4.55;;;2.20;;
21645;SDS011;10984;45.712;4.800;2023-02-26T04:39:06;5.45;;;2.30;;
21645;SDS011;10984;45.712;4.800;2023-02-26T04:41:34;4.50;;;2.08;;
21645;SDS011;10984;45.712;4.800;2023-02-26T04:44:00;6.22;;;2.10;;
21645;SDS011;10984;45.712;4.800;2023-02-26T04:46:27;5.30;;;2.15;;
21645;SDS011;10984;45.712;4.800;2023-02-26T04:48:53;4.28;;;2.13;;
21645;SDS011;10984;45.712;4.800;2023-02-26T04:51:19;9.00;;;2.58;;
21645;SDS011;10984;45.712;4.800;2023-02-26T04:53:44;5.30;;;2.28;;
21645;SDS011;10984;45.712;4.800;2023-02-26T04:56:10;5.82;;;2.15;;
21645;SDS011;10984;45.712;4.800;2023-02-26T04:58:36;4.60;;;2.25;;
21645;SDS011;10984;45.712;4.800;2023-02-26T05:01:02;3.80;;;1.75;;
21645;SDS011;10984;45.712;4.800;2023-02-26T05:03:28;5.30;;;1.83;;
21645;SDS011;10984;45.712;4.800;2023-02-26T05:05:53;4.90;;;2.13;;
21645;SDS011;10984;45.712;4.800;2023-02-26T05:08:19;8.23;;;2.17;;
21645;SDS011;10984;45.712;4.800;2023-02-26T05:10:45;6.30;;;2.40;;
21645;SDS011;10984;45.712;4.800;2023-02-26T05:13:11;6.03;;;2.10;;
21645;SDS011;10984;45.712;4.800;2023-02-26T05:15:36;3.47;;;1.65;;
21645;SDS011;10984;45.712;4.800;2023-02-26T05:18:02;5.85;;;1.80;;
21645;SDS011;10984;45.712;4.800;2023-02-26T05:20:28;3.35;;;1.45;;
21645;SDS011;10984;45.712;4.800;2023-02-26T05:22:53;3.33;;;1.80;;
21645;SDS011;10984;45.712;4.800;2023-02-26T05:25:19;3.97;;;1.40;;
21645;SDS011;10984;45.712;4.800;2023-02-26T05:27:45;5.40;;;2.38;;
21645;SDS011;10984;45.712;4.800;2023-02-26T05:30:12;4.68;;;1.52;;
21645;SDS011;10984;45.712;4.800;2023-02-26T05:32:39;5.60;;;2.13;;
21645;SDS011;10984;45.712;4.800;2023-02-26T05:35:05;5.20;;;1.70;;
21645;SDS011;10984;45.712;4.800;2023-02-26T05:37:31;5.28;;;1.80;;
21645;SDS011;10984;45.712;4.800;2023-02-26T05:39:57;4.55;;;1.85;;
21645;SDS011;10984;45.712;4.800;2023-02-26T05:42:23;5.55;;;1.65;;
21645;SDS011;10984;45.712;4.800;2023-02-26T05:44:49;7.03;;;1.83;;
21645;SDS011;10984;45.712;4.800;2023-02-26T05:47:15;5.45;;;2.42;;
21645;SDS011;10984;45.712;4.800;2023-02-26T05:49:41;5.75;;;1.50;;
21645;SDS011;10984;45.712;4.800;2023-02-26T05:52:07;3.60;;;1.50;;
21645;SDS011;10984;45.712;4.800;2023-02-26T05:54:32;5.25;;;1.92;;
21645;SDS011;10984;45.712;4.800;2023-02-26T05:56:58;3.25;;;1.40;;
21645;SDS011;10984;45.712;4.800;2023-02-26T05:59:24;3.22;;;1.42;;
21645;SDS011;10984;45.712;4.800;2023-02-26T06:01:50;3.28;;;1.60;;
21645;SDS011;10984;45.712;4.800;2023-02-26T06:04:16;3.53;;;1.45;;
21645;SDS011;10984;45.712;4.800;2023-02-26T06:06:41;3.55;;;1.52;;
21645;SDS011;10984;45.712;4.800;2023-02-26T06:09:07;5.57;;;1.70;;
21645;SDS011;10984;45.712;4.800;2023-02-26T06:11:33;4.53;;;1.90;;
21645;SDS011;10984;45.712;4.800;2023-02-26T06:13:59;6.00;;;1.92;;
21645;SDS011;10984;45.712;4.800;2023-02-26T06:16:24;3.95;;;1.33;;
21645;SDS011;10984;45.712;4.800;2023-02-26T06:18:50;5.00;;;1.55;;
21645;SDS011;10984;45.712;4.800;2023-02-26T06:21:16;3.28;;;1.25;;
21645;SDS011;10984;45.712;4.800;2023-02-26T06:23:42;3.22;;;1.60;;
21645;SDS011;10984;45.712;4.800;2023-02-26T06:26:08;3.40;;;1.63;;
21645;SDS011;10984;45.712;4.800;2023-02-26T06:28:33;2.67;;;1.40;;
21645;SDS011;10984;45.712;4.800;2023-02-26T06:30:59;4.07;;;1.65;;
21645;SDS011;10984;45.712;4.800;2023-02-26T06:33:25;2.30;;;1.33;;
21645;SDS011;10984;45.712;4.800;2023-02-26T06:35:50;4.22;;;1.20;;
21645;SDS011;10984;45.712;4.800;2023-02-26T06:38:16;2.65;;;1.60;;
21645;SDS011;10984;45.712;4.800;2023-02-26T06:40:43;4.53;;;2.15;;
21645;SDS011;10984;45.712;4.800;2023-02-26T06:43:09;8.80;;;1.60;;
21645;SDS011;10984;45.712;4.800;2023-02-26T06:45:35;3.17;;;1.23;;
21645;SDS011;10984;45.712;4.800;2023-02-26T06:48:01;3.72;;;1.88;;
21645;SDS011;10984;45.712;4.800;2023-02-26T06:50:27;3.58;;;1.83;;
21645;SDS011;10984;45.712;4.800;2023-02-26T06:52:52;7.68;;;1.90;;
21645;SDS011;10984;45.712;4.800;2023-02-26T06:55:18;3.10;;;1.20;;
21645;SDS011;10984;45.712;4.800;2023-02-26T06:57:45;4.38;;;1.38;;
21645;SDS011;10984;45.712;4.800;2023-02-26T07:00:11;4.13;;;1.70;;
21645;SDS011;10984;45.712;4.800;2023-02-26T07:02:38;2.80;;;1.17;;
21645;SDS011;10984;45.712;4.800;2023-02-26T07:05:04;3.20;;;1.23;;
21645;SDS011;10984;45.712;4.800;2023-02-26T07:07:30;3.42;;;1.42;;
21645;SDS011;10984;45.712;4.800;2023-02-26T07:09:55;2.35;;;1.20;;
21645;SDS011;10984;45.712;4.800;2023-02-26T07:12:21;5.93;;;1.58;;
21645;SDS011;10984;45.712;4.800;2023-02-26T07:14:47;3.75;;;1.45;;
21645;SDS011;10984;45.712;4.800;2023-02-26T07:17:12;3.50;;;1.65;;
21645;SDS011;10984;45.712;4.800;2023-02-26T07:19:44;3.10;;;1.15;;
21645;SDS011;10984;45.712;4.800;2023-02-26T07:22:11;4.85;;;1.30;;
21645;SDS011;10984;45.712;4.800;2023-02-26T07:24:36;2.38;;;1.23;;
21645;SDS011;10984;45.712;4.800;2023-02-26T07:27:02;3.72;;;1.65;;
21645;SDS011;10984;45.712;4.800;2023-02-26T07:29:28;3.95;;;1.60;;
21645;SDS011;10984;45.712;4.800;2023-02-26T07:31:53;2.28;;;1.10;;
21645;SDS011;10984;45.712;4.800;2023-02-26T07:34:19;3.05;;;1.52;;
21645;SDS011;10984;45.712;4.800;2023-02-26T07:36:45;3.70;;;1.23;;
21645;SDS011;10984;45.712;4.800;2023-02-26T07:39:10;2.60;;;1.25;;
21645;SDS011;10984;45.712;4.800;2023-02-26T07:41:36;2.90;;;1.15;;
21645;SDS011;10984;45.712;4.800;2023-02-26T07:44:01;2.83;;;1.17;;
21645;SDS011;10984;45.712;4.800;2023-02-26T07:46:27;2.58;;;1.30;;
21645;SDS011;10984;45.712;4.800;2023-02-26T07:48:53;3.30;;;1.70;;
21645;SDS011;10984;45.712;4.800;2023-02-26T07:51:18;2.88;;;1.17;;
21645;SDS011;10984;45.712;4.800;2023-02-26T07:53:44;2.72;;;1.48;;
21645;SDS011;10984;45.712;4.800;2023-02-26T07:56:10;2.85;;;1.10;;
21645;SDS011;10984;45.712;4.800;2023-02-26T07:58:35;2.78;;;1.17;;
21645;SDS011;10984;45.712;4.800;2023-02-26T08:01:01;2.67;;;1.10;;
21645;SDS011;10984;45.712;4.800;2023-02-26T08:03:27;5.20;;;1.30;;
21645;SDS011;10984;45.712;4.800;2023-02-26T08:05:52;3.53;;;1.35;;
21645;SDS011;10984;45.712;4.800;2023-02-26T08:08:18;7.75;;;1.30;;
21645;SDS011;10984;45.712;4.800;2023-02-26T08:10:44;3.45;;;1.35;;
21645;SDS011;10984;45.712;4.800;2023-02-26T08:13:09;3.00;;;1.20;;
21645;SDS011;10984;45.712;4.800;2023-02-26T08:15:35;2.95;;;1.45;;
21645;SDS011;10984;45.712;4.800;2023-02-26T08:18:00;2.63;;;1.02;;
21645;SDS011;10984;45.712;4.800;2023-02-26T08:20:26;5.95;;;1.60;;
21645;SDS011;10984;45.712;4.800;2023-02-26T08:22:52;3.13;;;1.42;;
21645;SDS011;10984;45.712;4.800;2023-02-26T08:25:17;2.13;;;1.00;;
21645;SDS011;10984;45.712;4.800;2023-02-26T08:27:43;5.13;;;2.00;;
21645;SDS011;10984;45.712;4.800;2023-02-26T08:30:09;5.53;;;1.33;;
21645;SDS011;10984;45.712;4.800;2023-02-26T08:32:36;4.13;;;1.58;;
21645;SDS011;10984;45.712;4.800;2023-02-26T08:35:04;3.50;;;1.30;;
21645;SDS011;10984;45.712;4.800;2023-02-26T08:37:30;2.38;;;1.20;;
21645;SDS011;10984;45.712;4.800;2023-02-26T08:39:56;3.00;;;1.48;;
21645;SDS011;10984;45.712;4.800;2023-02-26T08:42:21;3.17;;;1.30;;
21645;SDS011;10984;45.712;4.800;2023-02-26T08:44:47;2.25;;;1.20;;
21645;SDS011;10984;45.712;4.800;2023-02-26T08:47:13;2.75;;;1.48;;
21645;SDS011;10984;45.712;4.800;2023-02-26T08:49:38;3.20;;;1.35;;
21645;SDS011;10984;45.712;4.800;2023-02-26T08:52:04;4.63;;;1.60;;
21645;SDS011;10984;45.712;4.800;2023-02-26T08:54:30;2.85;;;1.25;;
21645;SDS011;10984;45.712;4.800;2023-02-26T08:56:56;2.45;;;1.30;;
21645;SDS011;10984;45.712;4.800;2023-02-26T08:59:22;3.50;;;1.17;;
21645;SDS011;10984;45.712;4.800;2023-02-26T09:01:48;2.67;;;1.50;;
21645;SDS011;10984;45.712;4.800;2023-02-26T09:04:15;11.23;;;1.63;;
21645;SDS011;10984;45.712;4.800;2023-02-26T09:06:40;2.60;;;1.35;;
21645;SDS011;10984;45.712;4.800;2023-02-26T09:09:06;3.67;;;1.40;;
21645;SDS011;10984;45.712;4.800;2023-02-26T09:11:32;3.22;;;1.25;;
21645;SDS011;10984;45.712;4.800;2023-02-26T09:13:58;3.33;;;1.58;;
21645;SDS011;10984;45.712;4.800;2023-02-26T09:16:26;3.20;;;1.17;;
21645;SDS011;10984;45.712;4.800;2023-02-26T09:18:51;2.70;;;1.40;;
21645;SDS011;10984;45.712;4.800;2023-02-26T09:21:17;2.63;;;1.20;;
21645;SDS011;10984;45.712;4.800;2023-02-26T09:23:43;2.88;;;1.63;;
21645;SDS011;10984;45.712;4.800;2023-02-26T09:26:08;3.80;;;1.58;;
21645;SDS011;10984;45.712;4.800;2023-02-26T09:28:34;1.90;;;1.13;;
21645;SDS011;10984;45.712;4.800;2023-02-26T09:30:59;7.20;;;1.90;;
21645;SDS011;10984;45.712;4.800;2023-02-26T09:33:25;3.60;;;1.55;;
21645;SDS011;10984;45.712;4.800;2023-02-26T09:35:51;3.22;;;1.23;;
21645;SDS011;10984;45.712;4.800;2023-02-26T09:38:17;3.15;;;1.90;;
21645;SDS011;10984;45.712;4.800;2023-02-26T09:40:44;3.30;;;1.60;;
21645;SDS011;10984;45.712;4.800;2023-02-26T09:43:34;2.58;;;1.38;;
21645;SDS011;10984;45.712;4.800;2023-02-26T09:51:49;4.50;;;1.60;;
21645;SDS011;10984;45.712;4.800;2023-02-26T09:54:23;3.92;;;1.40;;
21645;SDS011;10984;45.712;4.800;2023-02-26T09:56:52;3.53;;;1.40;;
21645;SDS011;10984;45.712;4.800;2023-02-26T09:59:21;3.10;;;1.70;;
21645;SDS011;10984;45.712;4.800;2023-02-26T10:04:52;3.22;;;1.23;;
21645;SDS011;10984;45.712;4.800;2023-02-26T10:16:13;3.60;;;1.33;;
21645;SDS011;10984;45.712;4.800;2023-02-26T10:18:44;2.72;;;1.10;;
21645;SDS011;10984;45.712;4.800;2023-02-26T10:21:14;2.78;;;1.38;;
21645;SDS011;10984;45.712;4.800;2023-02-26T10:35:18;2.45;;;1.25;;
21645;SDS011;10984;45.712;4.800;2023-02-26T10:40:37;3.30;;;1.80;;
21645;SDS011;10984;45.712;4.800;2023-02-26T10:51:41;3.65;;;1.38;;
21645;SDS011;10984;45.712;4.800;2023-02-26T10:59:59;5.28;;;1.60;;
21645;SDS011;10984;45.712;4.800;2023-02-26T11:07:58;1.88;;;1.00;;
21645;SDS011;10984;45.712;4.800;2023-02-26T11:13:33;3.03;;;1.27;;
21645;SDS011;10984;45.712;4.800;2023-02-26T11:16:08;2.40;;;1.30;;
21645;SDS011;10984;45.712;4.800;2023-02-26T11:18:39;2.63;;;0.80;;
21645;SDS011;10984;45.712;4.800;2023-02-26T11:21:05;2.75;;;1.30;;
21645;SDS011;10984;45.712;4.800;2023-02-26T11:23:32;2.38;;;1.05;;
21645;SDS011;10984;45.712;4.800;2023-02-26T11:26:04;3.30;;;1.30;;
21645;SDS011;10984;45.712;4.800;2023-02-26T11:31:19;2.55;;;1.10;;
21645;SDS011;10984;45.712;4.800;2023-02-26T11:36:36;3.00;;;1.27;;
21645;SDS011;10984;45.712;4.800;2023-02-26T11:39:06;2.45;;;1.35;;
21645;SDS011;10984;45.712;4.800;2023-02-26T11:41:52;3.25;;;1.08;;
21645;SDS011;10984;45.712;4.800;2023-02-26T11:47:25;4.32;;;1.00;;
21645;SDS011;10984;45.712;4.800;2023-02-26T11:49:54;4.03;;;1.40;;
21645;SDS011;10984;45.712;4.800;2023-02-26T12:01:16;3.63;;;1.20;;
21645;SDS011;10984;45.712;4.800;2023-02-26T12:03:44;3.13;;;0.80;;
21645;SDS011;10984;45.712;4.800;2023-02-26T12:06:14;1.08;;;0.50;;
21645;SDS011;10984;45.712;4.800;2023-02-26T12:08:59;1.52;;;0.73;;
21645;SDS011;10984;45.712;4.800;2023-02-26T12:20:59;4.90;;;0.82;;
21645;SDS011;10984;45.712;4.800;2023-02-26T12:38:04;2.58;;;0.90;;
21645;SDS011;10984;45.712;4.800;2023-02-26T12:43:53;1.15;;;0.63;;
21645;SDS011;10984;45.712;4.800;2023-02-26T13:21:43;1.20;;;0.60;;
21645;SDS011;10984;45.712;4.800;2023-02-26T13:27:32;4.78;;;1.30;;
21645;SDS011;10984;45.712;4.800;2023-02-26T13:33:04;1.95;;;0.80;;
21645;SDS011;10984;45.712;4.800;2023-02-26T13:35:39;2.78;;;1.05;;
21645;SDS011;10984;45.712;4.800;2023-02-26T13:41:33;2.22;;;1.00;;
21645;SDS011;10984;45.712;4.800;2023-02-26T13:58:48;2.35;;;0.85;;
21645;SDS011;10984;45.712;4.800;2023-02-26T14:01:35;4.13;;;1.27;;
21645;SDS011;10984;45.712;4.800;2023-02-26T14:04:31;1.08;;;0.50;;
21645;SDS011;10984;45.712;4.800;2023-02-26T14:07:14;2.80;;;0.88;;
21645;SDS011;10984;45.712;4.800;2023-02-26T14:18:04;2.08;;;0.98;;
21645;SDS011;10984;45.712;4.800;2023-02-26T14:20:43;3.17;;;0.80;;
21645;SDS011;10984;45.712;4.800;2023-02-26T14:23:33;1.25;;;0.75;;
21645;SDS011;10984;45.712;4.800;2023-02-26T14:26:03;2.58;;;0.88;;
21645;SDS011;10984;45.712;4.800;2023-02-26T14:37:47;4.47;;;0.90;;
21645;SDS011;10984;45.712;4.800;2023-02-26T14:40:22;2.05;;;0.73;;
21645;SDS011;10984;45.712;4.800;2023-02-26T14:43:08;1.63;;;0.70;;
21645;SDS011;10984;45.712;4.800;2023-02-26T14:45:42;1.65;;;0.70;;
21645;SDS011;10984;45.712;4.800;2023-02-26T14:48:13;2.38;;;0.98;;
21645;SDS011;10984;45.712;4.800;2023-02-26T15:05:28;1.70;;;0.63;;
21645;SDS011;10984;45.712;4.800;2023-02-26T15:25:22;2.08;;;0.80;;
21645;SDS011;10984;45.712;4.800;2023-02-26T15:27:55;1.23;;;0.50;;
21645;SDS011;10984;45.712;4.800;2023-02-26T15:30:22;0.88;;;0.50;;
21645;SDS011;10984;45.712;4.800;2023-02-26T15:32:54;1.30;;;0.73;;
21645;SDS011;10984;45.712;4.800;2023-02-26T15:35:42;0.85;;;0.50;;
21645;SDS011;10984;45.712;4.800;2023-02-26T15:38:09;1.05;;;0.60;;
21645;SDS011;10984;45.712;4.800;2023-02-26T15:40:35;4.18;;;1.15;;
21645;SDS011;10984;45.712;4.800;2023-02-26T15:43:02;1.48;;;0.50;;
21645;SDS011;10984;45.712;4.800;2023-02-26T15:51:19;2.63;;;1.00;;
21645;SDS011;10984;45.712;4.800;2023-02-26T15:53:46;1.27;;;0.52;;
21645;SDS011;10984;45.712;4.800;2023-02-26T15:56:24;2.83;;;0.75;;
21645;SDS011;10984;45.712;4.800;2023-02-26T15:58:54;1.77;;;0.68;;
21645;SDS011;10984;45.712;4.800;2023-02-26T16:01:24;1.15;;;0.47;;
21645;SDS011;10984;45.712;4.800;2023-02-26T16:03:52;0.70;;;0.40;;
21645;SDS011;10984;45.712;4.800;2023-02-26T16:09:07;1.38;;;0.57;;
21645;SDS011;10984;45.712;4.800;2023-02-26T16:11:40;2.88;;;0.73;;
21645;SDS011;10984;45.712;4.800;2023-02-26T16:14:07;2.05;;;0.68;;
21645;SDS011;10984;45.712;4.800;2023-02-26T16:16:41;2.53;;;0.70;;
21645;SDS011;10984;45.712;4.800;2023-02-26T16:22:17;1.95;;;0.50;;
21645;SDS011;10984;45.712;4.800;2023-02-26T16:30:56;2.58;;;0.60;;
21645;SDS011;10984;45.712;4.800;2023-02-26T16:33:24;1.25;;;0.52;;
21645;SDS011;10984;45.712;4.800;2023-02-26T16:41:45;7.82;;;0.90;;
21645;SDS011;10984;45.712;4.800;2023-02-26T16:46:56;1.90;;;0.70;;
21645;SDS011;10984;45.712;4.800;2023-02-26T16:52:09;1.02;;;0.60;;
21645;SDS011;10984;45.712;4.800;2023-02-26T16:54:46;2.28;;;0.90;;
21645;SDS011;10984;45.712;4.800;2023-02-26T16:57:39;2.03;;;0.77;;
21645;SDS011;10984;45.712;4.800;2023-02-26T17:00:10;2.70;;;0.93;;
21645;SDS011;10984;45.712;4.800;2023-02-26T17:06:03;1.45;;;0.63;;
21645;SDS011;10984;45.712;4.800;2023-02-26T17:08:34;1.77;;;0.77;;
21645;SDS011;10984;45.712;4.800;2023-02-26T17:16:53;2.10;;;0.90;;
21645;SDS011;10984;45.712;4.800;2023-02-26T17:19:18;1.17;;;0.57;;
21645;SDS011;10984;45.712;4.800;2023-02-26T17:21:45;1.13;;;0.50;;
21645;SDS011;10984;45.712;4.800;2023-02-26T17:27:01;2.58;;;0.90;;
21645;SDS011;10984;45.712;4.800;2023-02-26T17:29:49;2.85;;;1.25;;
21645;SDS011;10984;45.712;4.800;2023-02-26T17:35:00;1.88;;;0.85;;
21645;SDS011;10984;45.712;4.800;2023-02-26T17:43:00;4.47;;;1.02;;
21645;SDS011;10984;45.712;4.800;2023-02-26T17:45:29;1.65;;;0.63;;
21645;SDS011;10984;45.712;4.800;2023-02-26T17:47:55;2.83;;;1.10;;
21645;SDS011;10984;45.712;4.800;2023-02-26T17:53:25;1.42;;;0.68;;
21645;SDS011;10984;45.712;4.800;2023-02-26T17:56:10;3.50;;;1.17;;
21645;SDS011;10984;45.712;4.800;2023-02-26T17:58:39;2.08;;;0.70;;
21645;SDS011;10984;45.712;4.800;2023-02-26T18:01:05;1.55;;;0.90;;
21645;SDS011;10984;45.712;4.800;2023-02-26T18:03:32;1.67;;;0.77;;
21645;SDS011;10984;45.712;4.800;2023-02-26T18:05:58;1.60;;;0.65;;
21645;SDS011;10984;45.712;4.800;2023-02-26T18:11:10;2.00;;;0.90;;
21645;SDS011;10984;45.712;4.800;2023-02-26T18:13:37;1.20;;;0.68;;
21645;SDS011;10984;45.712;4.800;2023-02-26T18:16:03;2.25;;;0.90;;
21645;SDS011;10984;45.712;4.800;2023-02-26T18:18:30;2.25;;;0.50;;
21645;SDS011;10984;45.712;4.800;2023-02-26T18:20:57;3.83;;;1.70;;
21645;SDS011;10984;45.712;4.800;2023-02-26T18:23:23;2.17;;;0.90;;
21645;SDS011;10984;45.712;4.800;2023-02-26T18:25:50;2.03;;;0.80;;
21645;SDS011;10984;45.712;4.800;2023-02-26T18:31:01;2.40;;;0.68;;
21645;SDS011;10984;45.712;4.800;2023-02-26T18:33:32;1.42;;;0.70;;
21645;SDS011;10984;45.712;4.800;2023-02-26T18:35:58;2.28;;;0.82;;
21645;SDS011;10984;45.712;4.800;2023-02-26T18:38:24;2.10;;;1.02;;
21645;SDS011;10984;45.712;4.800;2023-02-26T18:40:51;1.00;;;0.50;;
21645;SDS011;10984;45.712;4.800;2023-02-26T18:43:18;1.60;;;0.77;;
21645;SDS011;10984;45.712;4.800;2023-02-26T18:45:45;1.92;;;0.80;;
21645;SDS011;10984;45.712;4.800;2023-02-26T18:48:12;2.00;;;0.75;;
21645;SDS011;10984;45.712;4.800;2023-02-26T18:50:43;1.60;;;0.90;;
21645;SDS011;10984;45.712;4.800;2023-02-26T18:53:10;2.75;;;1.02;;
21645;SDS011;10984;45.712;4.800;2023-02-26T18:55:36;1.98;;;0.80;;
21645;SDS011;10984;45.712;4.800;2023-02-26T18:58:02;1.73;;;0.80;;
21645;SDS011;10984;45.712;4.800;2023-02-26T19:00:28;1.48;;;0.63;;
21645;SDS011;10984;45.712;4.800;2023-02-26T19:02:54;2.55;;;1.17;;
21645;SDS011;10984;45.712;4.800;2023-02-26T19:05:20;1.92;;;0.95;;
21645;SDS011;10984;45.712;4.800;2023-02-26T19:07:51;2.92;;;1.08;;
21645;SDS011;10984;45.712;4.800;2023-02-26T19:10:17;2.53;;;0.85;;
21645;SDS011;10984;45.712;4.800;2023-02-26T19:12:43;2.15;;;1.05;;
21645;SDS011;10984;45.712;4.800;2023-02-26T19:15:09;2.83;;;1.20;;
21645;SDS011;10984;45.712;4.800;2023-02-26T19:17:37;3.60;;;1.13;;
21645;SDS011;10984;45.712;4.800;2023-02-26T19:20:03;3.72;;;1.20;;
21645;SDS011;10984;45.712;4.800;2023-02-26T19:22:29;2.10;;;1.08;;
21645;SDS011;10984;45.712;4.800;2023-02-26T19:24:55;2.00;;;0.90;;
21645;SDS011;10984;45.712;4.800;2023-02-26T19:27:21;1.63;;;0.93;;
21645;SDS011;10984;45.712;4.800;2023-02-26T19:29:46;1.13;;;0.60;;
21645;SDS011;10984;45.712;4.800;2023-02-26T19:32:12;2.08;;;1.02;;
21645;SDS011;10984;45.712;4.800;2023-02-26T19:34:38;0.90;;;0.60;;
21645;SDS011;10984;45.712;4.800;2023-02-26T19:37:04;1.40;;;0.77;;
21645;SDS011;10984;45.712;4.800;2023-02-26T19:39:30;2.45;;;0.93;;
21645;SDS011;10984;45.712;4.800;2023-02-26T19:41:56;2.00;;;0.98;;
21645;SDS011;10984;45.712;4.800;2023-02-26T19:44:23;2.00;;;0.80;;
21645;SDS011;10984;45.712;4.800;2023-02-26T19:46:51;2.65;;;0.63;;
21645;SDS011;10984;45.712;4.800;2023-02-26T19:49:17;0.95;;;0.60;;
21645;SDS011;10984;45.712;4.800;2023-02-26T19:51:43;1.98;;;0.77;;
21645;SDS011;10984;45.712;4.800;2023-02-26T19:54:09;1.90;;;0.82;;
21645;SDS011;10984;45.712;4.800;2023-02-26T19:56:37;1.77;;;0.90;;
21645;SDS011;10984;45.712;4.800;2023-02-26T19:59:03;2.22;;;1.08;;
21645;SDS011;10984;45.712;4.800;2023-02-26T20:01:30;1.50;;;0.82;;
21645;SDS011;10984;45.712;4.800;2023-02-26T20:03:55;2.05;;;0.70;;
21645;SDS011;10984;45.712;4.800;2023-02-26T20:06:21;2.22;;;0.70;;
21645;SDS011;10984;45.712;4.800;2023-02-26T20:08:47;2.88;;;1.27;;
21645;SDS011;10984;45.712;4.800;2023-02-26T20:11:12;2.95;;;1.13;;
21645;SDS011;10984;45.712;4.800;2023-02-26T20:13:38;2.80;;;1.20;;
21645;SDS011;10984;45.712;4.800;2023-02-26T20:16:05;2.10;;;0.85;;
21645;SDS011;10984;45.712;4.800;2023-02-26T20:18:32;2.03;;;0.90;;
21645;SDS011;10984;45.712;4.800;2023-02-26T20:20:58;3.75;;;0.95;;
21645;SDS011;10984;45.712;4.800;2023-02-26T20:23:25;2.72;;;0.70;;
21645;SDS011;10984;45.712;4.800;2023-02-26T20:28:37;2.17;;;0.90;;
21645;SDS011;10984;45.712;4.800;2023-02-26T20:31:04;1.67;;;0.80;;
21645;SDS011;10984;45.712;4.800;2023-02-26T20:33:30;2.25;;;0.73;;
21645;SDS011;10984;45.712;4.800;2023-02-26T20:35:57;1.88;;;1.05;;
21645;SDS011;10984;45.712;4.800;2023-02-26T20:38:23;3.13;;;0.77;;
21645;SDS011;10984;45.712;4.800;2023-02-26T20:40:50;1.80;;;0.90;;
21645;SDS011;10984;45.712;4.800;2023-02-26T20:43:16;2.05;;;0.90;;
21645;SDS011;10984;45.712;4.800;2023-02-26T20:45:41;5.95;;;1.05;;
21645;SDS011;10984;45.712;4.800;2023-02-26T20:48:07;2.38;;;0.65;;
21645;SDS011;10984;45.712;4.800;2023-02-26T20:50:34;1.73;;;0.88;;
21645;SDS011;10984;45.712;4.800;2023-02-26T20:53:00;2.05;;;0.63;;
21645;SDS011;10984;45.712;4.800;2023-02-26T20:55:27;2.75;;;0.80;;
21645;SDS011;10984;45.712;4.800;2023-02-26T20:57:52;2.15;;;0.77;;
21645;SDS011;10984;45.712;4.800;2023-02-26T21:00:19;1.80;;;0.80;;
21645;SDS011;10984;45.712;4.800;2023-02-26T21:02:46;3.67;;;0.95;;
21645;SDS011;10984;45.712;4.800;2023-02-26T21:05:11;2.65;;;1.02;;
21645;SDS011;10984;45.712;4.800;2023-02-26T21:07:38;1.88;;;0.68;;
21645;SDS011;10984;45.712;4.800;2023-02-26T21:10:05;2.00;;;1.00;;
21645;SDS011;10984;45.712;4.800;2023-02-26T21:12:32;1.90;;;0.82;;
21645;SDS011;10984;45.712;4.800;2023-02-26T21:14:57;1.95;;;0.90;;
21645;SDS011;10984;45.712;4.800;2023-02-26T21:17:23;1.90;;;0.80;;
21645;SDS011;10984;45.712;4.800;2023-02-26T21:19:50;2.63;;;0.98;;